sensor_id;sensor_type;location;lat;lon;timestamp;P1;durP1;ratioP1;P2;durP2;ratioP2
26750;SDS011;14345;48.272;25.926;2022-10-04T00:00:50;2.75;;;2.00;;
26750;SDS011;14345;48.272;25.926;2022-10-04T00:03:24;3.50;;;2.17;;
26750;SDS011;14345;48.272;25.926;2022-10-04T00:05:53;4.75;;;2.42;;
26750;SDS011;14345;48.272;25.926;2022-10-04T00:10:46;2.08;;;1.85;;
26750;SDS011;14345;48.272;25.926;2022-10-04T00:13:21;2.45;;;1.95;;
26750;SDS011;14345;48.272;25.926;2022-10-04T00:15:48;4.22;;;1.95;;
26750;SDS011;14345;48.272;25.926;2022-10-04T00:25:50;4.50;;;2.60;;
26750;SDS011;14345;48.272;25.926;2022-10-04T00:31:05;4.53;;;2.55;;
26750;SDS011;14345;48.272;25.926;2022-10-04T00:33:37;5.63;;;2.33;;
26750;SDS011;14345;48.272;25.926;2022-10-04T00:44:04;2.58;;;2.08;;
26750;SDS011;14345;48.272;25.926;2022-10-04T00:46:31;2.25;;;1.75;;
26750;SDS011;14345;48.272;25.926;2022-10-04T00:48:59;2.92;;;1.90;;
26750;SDS011;14345;48.272;25.926;2022-10-04T00:51:36;2.55;;;1.77;;
26750;SDS011;14345;48.272;25.926;2022-10-04T00:54:04;2.95;;;1.75;;
26750;SDS011;14345;48.272;25.926;2022-10-04T00:59:03;1.85;;;1.70;;
26750;SDS011;14345;48.272;25.926;2022-10-04T01:01:30;2.30;;;1.70;;
26750;SDS011;14345;48.272;25.926;2022-10-04T01:03:59;3.15;;;1.75;;
26750;SDS011;14345;48.272;25.926;2022-10-04T01:06:26;1.83;;;1.73;;
26750;SDS011;14345;48.272;25.926;2022-10-04T01:08:53;2.35;;;1.90;;
26750;SDS011;14345;48.272;25.926;2022-10-04T01:11:27;2.72;;;1.67;;
26750;SDS011;14345;48.272;25.926;2022-10-04T01:13:58;1.85;;;1.63;;
26750;SDS011;14345;48.272;25.926;2022-10-04T01:16:27;2.22;;;1.85;;
26750;SDS011;14345;48.272;25.926;2022-10-04T01:18:54;2.50;;;1.70;;
26750;SDS011;14345;48.272;25.926;2022-10-04T01:21:27;4.97;;;1.75;;
26750;SDS011;14345;48.272;25.926;2022-10-04T01:31:33;2.92;;;1.70;;
26750;SDS011;14345;48.272;25.926;2022-10-04T01:34:00;2.13;;;1.75;;
26750;SDS011;14345;48.272;25.926;2022-10-04T01:36:26;3.10;;;1.67;;
26750;SDS011;14345;48.272;25.926;2022-10-04T01:38:53;5.55;;;1.92;;
26750;SDS011;14345;48.272;25.926;2022-10-04T01:44:05;4.55;;;1.80;;
26750;SDS011;14345;48.272;25.926;2022-10-04T01:46:33;4.55;;;1.70;;
26750;SDS011;14345;48.272;25.926;2022-10-04T01:49:01;2.30;;;1.75;;
26750;SDS011;14345;48.272;25.926;2022-10-04T01:51:29;4.60;;;1.70;;
26750;SDS011;14345;48.272;25.926;2022-10-04T01:54:01;2.88;;;1.92;;
26750;SDS011;14345;48.272;25.926;2022-10-04T01:56:31;2.38;;;1.80;;
26750;SDS011;14345;48.272;25.926;2022-10-04T01:59:02;1.90;;;1.48;;
26750;SDS011;14345;48.272;25.926;2022-10-04T02:01:31;2.00;;;1.55;;
26750;SDS011;14345;48.272;25.926;2022-10-04T02:04:10;4.30;;;1.75;;
26750;SDS011;14345;48.272;25.926;2022-10-04T02:06:37;2.40;;;1.50;;
26750;SDS011;14345;48.272;25.926;2022-10-04T02:09:09;4.05;;;1.75;;
26750;SDS011;14345;48.272;25.926;2022-10-04T02:11:36;4.35;;;1.63;;
26750;SDS011;14345;48.272;25.926;2022-10-04T02:14:08;4.22;;;1.38;;
26750;SDS011;14345;48.272;25.926;2022-10-04T02:16:39;4.82;;;1.70;;
26750;SDS011;14345;48.272;25.926;2022-10-04T02:19:07;3.30;;;1.80;;
26750;SDS011;14345;48.272;25.926;2022-10-04T02:21:34;2.97;;;1.60;;
26750;SDS011;14345;48.272;25.926;2022-10-04T02:24:01;2.45;;;1.73;;
26750;SDS011;14345;48.272;25.926;2022-10-04T02:26:27;1.65;;;1.33;;
26750;SDS011;14345;48.272;25.926;2022-10-04T02:28:53;2.25;;;1.80;;
26750;SDS011;14345;48.272;25.926;2022-10-04T02:31:20;4.28;;;1.75;;
26750;SDS011;14345;48.272;25.926;2022-10-04T02:34:06;1.67;;;1.58;;
26750;SDS011;14345;48.272;25.926;2022-10-04T02:36:32;2.83;;;1.80;;
26750;SDS011;14345;48.272;25.926;2022-10-04T02:39:00;1.33;;;1.20;;
26750;SDS011;14345;48.272;25.926;2022-10-04T02:41:37;3.45;;;1.50;;
26750;SDS011;14345;48.272;25.926;2022-10-04T02:51:51;5.18;;;1.60;;
26750;SDS011;14345;48.272;25.926;2022-10-04T02:56:54;8.45;;;1.50;;
26750;SDS011;14345;48.272;25.926;2022-10-04T02:59:20;2.28;;;1.42;;
26750;SDS011;14345;48.272;25.926;2022-10-04T03:04:13;3.83;;;1.58;;
26750;SDS011;14345;48.272;25.926;2022-10-04T03:06:40;3.45;;;1.50;;
26750;SDS011;14345;48.272;25.926;2022-10-04T03:09:06;2.25;;;1.52;;
26750;SDS011;14345;48.272;25.926;2022-10-04T03:11:34;2.65;;;1.40;;
26750;SDS011;14345;48.272;25.926;2022-10-04T03:14:03;3.17;;;1.30;;
26750;SDS011;14345;48.272;25.926;2022-10-04T03:16:34;3.92;;;1.52;;
26750;SDS011;14345;48.272;25.926;2022-10-04T03:19:00;2.95;;;1.95;;
26750;SDS011;14345;48.272;25.926;2022-10-04T03:21:27;4.40;;;1.40;;
26750;SDS011;14345;48.272;25.926;2022-10-04T03:23:53;1.55;;;1.35;;
26750;SDS011;14345;48.272;25.926;2022-10-04T03:28:48;1.42;;;1.30;;
26750;SDS011;14345;48.272;25.926;2022-10-04T03:31:14;2.30;;;1.73;;
26750;SDS011;14345;48.272;25.926;2022-10-04T03:33:41;2.53;;;1.70;;
26750;SDS011;14345;48.272;25.926;2022-10-04T03:36:08;1.92;;;1.60;;
26750;SDS011;14345;48.272;25.926;2022-10-04T03:38:37;2.28;;;1.80;;
26750;SDS011;14345;48.272;25.926;2022-10-04T03:41:04;4.10;;;1.70;;
26750;SDS011;14345;48.272;25.926;2022-10-04T03:43:31;2.33;;;1.77;;
26750;SDS011;14345;48.272;25.926;2022-10-04T03:45:59;2.55;;;1.70;;
26750;SDS011;14345;48.272;25.926;2022-10-04T03:48:36;2.38;;;1.55;;
26750;SDS011;14345;48.272;25.926;2022-10-04T03:51:04;4.10;;;1.90;;
26750;SDS011;14345;48.272;25.926;2022-10-04T03:53:44;2.13;;;1.63;;
26750;SDS011;14345;48.272;25.926;2022-10-04T03:56:11;2.85;;;1.58;;
26750;SDS011;14345;48.272;25.926;2022-10-04T03:58:38;2.17;;;1.73;;
26750;SDS011;14345;48.272;25.926;2022-10-04T04:03:45;2.50;;;1.98;;
26750;SDS011;14345;48.272;25.926;2022-10-04T04:06:16;2.83;;;1.63;;
26750;SDS011;14345;48.272;25.926;2022-10-04T04:08:43;3.10;;;1.50;;
26750;SDS011;14345;48.272;25.926;2022-10-04T04:11:20;2.50;;;1.70;;
26750;SDS011;14345;48.272;25.926;2022-10-04T04:13:53;4.53;;;1.85;;
26750;SDS011;14345;48.272;25.926;2022-10-04T04:16:21;3.85;;;2.05;;
26750;SDS011;14345;48.272;25.926;2022-10-04T04:18:52;3.17;;;1.85;;
26750;SDS011;14345;48.272;25.926;2022-10-04T04:21:19;2.58;;;1.90;;
26750;SDS011;14345;48.272;25.926;2022-10-04T04:34:15;2.00;;;1.60;;
26750;SDS011;14345;48.272;25.926;2022-10-04T04:36:42;1.75;;;1.63;;
26750;SDS011;14345;48.272;25.926;2022-10-04T04:41:55;2.40;;;1.75;;
26750;SDS011;14345;48.272;25.926;2022-10-04T04:44:21;4.45;;;1.70;;
26750;SDS011;14345;48.272;25.926;2022-10-04T04:46:48;2.97;;;2.05;;
26750;SDS011;14345;48.272;25.926;2022-10-04T04:49:14;2.30;;;1.80;;
26750;SDS011;14345;48.272;25.926;2022-10-04T04:51:44;3.15;;;1.77;;
26750;SDS011;14345;48.272;25.926;2022-10-04T04:54:11;1.88;;;1.70;;
26750;SDS011;14345;48.272;25.926;2022-10-04T04:56:37;2.88;;;1.88;;
26750;SDS011;14345;48.272;25.926;2022-10-04T04:59:03;2.85;;;2.15;;
26750;SDS011;14345;48.272;25.926;2022-10-04T05:01:38;3.00;;;2.15;;
26750;SDS011;14345;48.272;25.926;2022-10-04T05:06:39;2.40;;;1.73;;
26750;SDS011;14345;48.272;25.926;2022-10-04T05:09:12;2.83;;;2.28;;
26750;SDS011;14345;48.272;25.926;2022-10-04T05:11:46;2.63;;;2.42;;
26750;SDS011;14345;48.272;25.926;2022-10-04T05:14:15;5.53;;;2.20;;
26750;SDS011;14345;48.272;25.926;2022-10-04T05:16:52;3.75;;;2.30;;
26750;SDS011;14345;48.272;25.926;2022-10-04T05:19:23;2.80;;;2.00;;
26750;SDS011;14345;48.272;25.926;2022-10-04T05:21:53;3.55;;;2.58;;
26750;SDS011;14345;48.272;25.926;2022-10-04T05:26:48;2.83;;;2.28;;
26750;SDS011;14345;48.272;25.926;2022-10-04T05:29:16;2.70;;;2.40;;
26750;SDS011;14345;48.272;25.926;2022-10-04T05:34:25;5.43;;;2.20;;
26750;SDS011;14345;48.272;25.926;2022-10-04T05:42:02;2.95;;;1.65;;
26750;SDS011;14345;48.272;25.926;2022-10-04T05:44:35;2.10;;;1.90;;
26750;SDS011;14345;48.272;25.926;2022-10-04T05:47:04;1.73;;;1.63;;
26750;SDS011;14345;48.272;25.926;2022-10-04T05:49:38;2.13;;;1.85;;
26750;SDS011;14345;48.272;25.926;2022-10-04T05:52:15;2.90;;;1.90;;
26750;SDS011;14345;48.272;25.926;2022-10-04T05:54:42;2.88;;;1.77;;
26750;SDS011;14345;48.272;25.926;2022-10-04T06:12:12;2.67;;;1.90;;
26750;SDS011;14345;48.272;25.926;2022-10-04T06:17:18;3.33;;;1.77;;
26750;SDS011;14345;48.272;25.926;2022-10-04T06:20:01;2.47;;;1.60;;
26750;SDS011;14345;48.272;25.926;2022-10-04T06:22:30;1.92;;;1.73;;
26750;SDS011;14345;48.272;25.926;2022-10-04T06:25:06;3.40;;;2.05;;
26750;SDS011;14345;48.272;25.926;2022-10-04T06:30:17;4.05;;;1.73;;
26750;SDS011;14345;48.272;25.926;2022-10-04T06:50:47;2.60;;;1.33;;
26750;SDS011;14345;48.272;25.926;2022-10-04T07:01:29;1.52;;;1.40;;
26750;SDS011;14345;48.272;25.926;2022-10-04T07:04:16;1.85;;;1.30;;
26750;SDS011;14345;48.272;25.926;2022-10-04T07:09:40;1.92;;;1.50;;
26750;SDS011;14345;48.272;25.926;2022-10-04T07:12:09;2.17;;;1.40;;
26750;SDS011;14345;48.272;25.926;2022-10-04T07:14:43;3.30;;;1.58;;
26750;SDS011;14345;48.272;25.926;2022-10-04T07:17:13;2.88;;;1.50;;
26750;SDS011;14345;48.272;25.926;2022-10-04T07:22:12;1.65;;;1.42;;
26750;SDS011;14345;48.272;25.926;2022-10-04T07:29:54;4.38;;;1.60;;
26750;SDS011;14345;48.272;25.926;2022-10-04T07:40:21;1.48;;;1.38;;
26750;SDS011;14345;48.272;25.926;2022-10-04T07:42:52;1.50;;;1.40;;
26750;SDS011;14345;48.272;25.926;2022-10-04T07:47:49;1.90;;;1.20;;
26750;SDS011;14345;48.272;25.926;2022-10-04T07:52:46;1.52;;;1.20;;
26750;SDS011;14345;48.272;25.926;2022-10-04T07:55:27;1.42;;;1.23;;
26750;SDS011;14345;48.272;25.926;2022-10-04T07:57:57;1.63;;;1.25;;
26750;SDS011;14345;48.272;25.926;2022-10-04T08:05:21;1.30;;;1.20;;
26750;SDS011;14345;48.272;25.926;2022-10-04T08:10:24;1.85;;;1.10;;
26750;SDS011;14345;48.272;25.926;2022-10-04T08:12:55;1.15;;;1.08;;
26750;SDS011;14345;48.272;25.926;2022-10-04T08:15:27;1.52;;;1.15;;
26750;SDS011;14345;48.272;25.926;2022-10-04T08:20:58;1.20;;;1.10;;
26750;SDS011;14345;48.272;25.926;2022-10-04T08:37:27;1.10;;;1.00;;
26750;SDS011;14345;48.272;25.926;2022-10-04T08:45:10;1.80;;;0.95;;
26750;SDS011;14345;48.272;25.926;2022-10-04T09:00:44;1.95;;;1.02;;
26750;SDS011;14345;48.272;25.926;2022-10-04T09:16:13;2.10;;;1.00;;
26750;SDS011;14345;48.272;25.926;2022-10-04T10:00:19;2.83;;;0.63;;
26750;SDS011;14345;48.272;25.926;2022-10-04T10:05:27;1.17;;;0.70;;
26750;SDS011;14345;48.272;25.926;2022-10-04T10:18:59;2.72;;;0.88;;
26750;SDS011;14345;48.272;25.926;2022-10-04T10:51:12;3.22;;;1.00;;
26750;SDS011;14345;48.272;25.926;2022-10-04T11:11:53;1.50;;;0.95;;
26750;SDS011;14345;48.272;25.926;2022-10-04T11:27:01;0.80;;;0.50;;
26750;SDS011;14345;48.272;25.926;2022-10-04T11:58:19;2.35;;;0.80;;
26750;SDS011;14345;48.272;25.926;2022-10-04T12:09:22;1.27;;;0.77;;
26750;SDS011;14345;48.272;25.926;2022-10-04T12:14:31;1.67;;;0.90;;
26750;SDS011;14345;48.272;25.926;2022-10-04T12:19:47;1.25;;;0.90;;
26750;SDS011;14345;48.272;25.926;2022-10-04T12:22:18;2.45;;;0.60;;
26750;SDS011;14345;48.272;25.926;2022-10-04T12:32:53;0.65;;;0.52;;
26750;SDS011;14345;48.272;25.926;2022-10-04T12:40:43;0.60;;;0.60;;
26750;SDS011;14345;48.272;25.926;2022-10-04T12:50:55;0.68;;;0.60;;
26750;SDS011;14345;48.272;25.926;2022-10-04T12:58:44;1.30;;;0.80;;
26750;SDS011;14345;48.272;25.926;2022-10-04T13:19:57;2.35;;;0.82;;
26750;SDS011;14345;48.272;25.926;2022-10-04T13:35:37;0.93;;;0.77;;
26750;SDS011;14345;48.272;25.926;2022-10-04T13:49:01;2.15;;;0.70;;
26750;SDS011;14345;48.272;25.926;2022-10-04T13:54:46;1.40;;;0.73;;
26750;SDS011;14345;48.272;25.926;2022-10-04T13:57:43;2.40;;;1.15;;
26750;SDS011;14345;48.272;25.926;2022-10-04T14:00:12;1.98;;;0.98;;
26750;SDS011;14345;48.272;25.926;2022-10-04T14:07:56;1.70;;;0.93;;
26750;SDS011;14345;48.272;25.926;2022-10-04T14:13:17;1.55;;;1.10;;
26750;SDS011;14345;48.272;25.926;2022-10-04T14:18:43;5.38;;;1.10;;
26750;SDS011;14345;48.272;25.926;2022-10-04T14:23:54;0.95;;;0.70;;
26750;SDS011;14345;48.272;25.926;2022-10-04T14:29:21;1.63;;;1.00;;
26750;SDS011;14345;48.272;25.926;2022-10-04T14:35:00;1.77;;;1.05;;
26750;SDS011;14345;48.272;25.926;2022-10-04T14:45:20;1.52;;;1.17;;
26750;SDS011;14345;48.272;25.926;2022-10-04T14:50:22;1.27;;;1.00;;
26750;SDS011;14345;48.272;25.926;2022-10-04T14:52:54;2.00;;;1.33;;
26750;SDS011;14345;48.272;25.926;2022-10-04T15:00:51;2.47;;;1.20;;
26750;SDS011;14345;48.272;25.926;2022-10-04T15:03:28;1.70;;;1.20;;
26750;SDS011;14345;48.272;25.926;2022-10-04T15:06:05;3.47;;;1.40;;
26750;SDS011;14345;48.272;25.926;2022-10-04T15:08:41;2.67;;;1.20;;
26750;SDS011;14345;48.272;25.926;2022-10-04T15:11:11;2.25;;;1.10;;
26750;SDS011;14345;48.272;25.926;2022-10-04T15:16:35;1.95;;;1.15;;
26750;SDS011;14345;48.272;25.926;2022-10-04T15:32:21;4.50;;;2.08;;
26750;SDS011;14345;48.272;25.926;2022-10-04T15:42:36;3.95;;;2.65;;
26750;SDS011;14345;48.272;25.926;2022-10-04T16:03:42;5.68;;;2.78;;
26750;SDS011;14345;48.272;25.926;2022-10-04T16:06:26;2.83;;;2.13;;
26750;SDS011;14345;48.272;25.926;2022-10-04T16:16:59;4.55;;;2.08;;
26750;SDS011;14345;48.272;25.926;2022-10-04T16:19:39;3.85;;;2.17;;
26750;SDS011;14345;48.272;25.926;2022-10-04T16:22:13;4.25;;;1.70;;
26750;SDS011;14345;48.272;25.926;2022-10-04T16:24:47;3.38;;;1.83;;
26750;SDS011;14345;48.272;25.926;2022-10-04T16:27:21;3.35;;;2.08;;
26750;SDS011;14345;48.272;25.926;2022-10-04T16:29:59;2.75;;;2.08;;
26750;SDS011;14345;48.272;25.926;2022-10-04T16:32:38;3.47;;;1.80;;
26750;SDS011;14345;48.272;25.926;2022-10-04T16:56:15;2.17;;;1.98;;
26750;SDS011;14345;48.272;25.926;2022-10-04T16:58:58;3.22;;;1.92;;
26750;SDS011;14345;48.272;25.926;2022-10-04T17:16:55;4.18;;;2.03;;
26750;SDS011;14345;48.272;25.926;2022-10-04T17:19:35;3.20;;;2.08;;
26750;SDS011;14345;48.272;25.926;2022-10-04T17:22:14;4.22;;;1.70;;
26750;SDS011;14345;48.272;25.926;2022-10-04T17:24:59;3.55;;;2.17;;
26750;SDS011;14345;48.272;25.926;2022-10-04T17:48:43;2.65;;;1.95;;
26750;SDS011;14345;48.272;25.926;2022-10-04T17:51:37;6.93;;;2.50;;
26750;SDS011;14345;48.272;25.926;2022-10-04T17:54:23;2.40;;;1.92;;
26750;SDS011;14345;48.272;25.926;2022-10-04T17:57:14;4.80;;;1.83;;
26750;SDS011;14345;48.272;25.926;2022-10-04T17:59:47;3.60;;;2.20;;
26750;SDS011;14345;48.272;25.926;2022-10-04T18:02:21;4.75;;;1.83;;
26750;SDS011;14345;48.272;25.926;2022-10-04T18:04:51;4.38;;;2.15;;
26750;SDS011;14345;48.272;25.926;2022-10-04T18:07:22;4.60;;;1.90;;
26750;SDS011;14345;48.272;25.926;2022-10-04T18:09:51;2.08;;;1.70;;
26750;SDS011;14345;48.272;25.926;2022-10-04T18:12:33;3.60;;;1.80;;
26750;SDS011;14345;48.272;25.926;2022-10-04T18:15:03;2.58;;;1.63;;
26750;SDS011;14345;48.272;25.926;2022-10-04T18:17:39;3.88;;;1.90;;
26750;SDS011;14345;48.272;25.926;2022-10-04T18:22:48;7.20;;;1.75;;
26750;SDS011;14345;48.272;25.926;2022-10-04T18:25:16;3.53;;;1.80;;
26750;SDS011;14345;48.272;25.926;2022-10-04T18:30:14;4.32;;;1.67;;
26750;SDS011;14345;48.272;25.926;2022-10-04T18:32:51;2.85;;;1.52;;
26750;SDS011;14345;48.272;25.926;2022-10-04T18:35:18;3.90;;;1.90;;
26750;SDS011;14345;48.272;25.926;2022-10-04T18:37:49;2.17;;;1.60;;
26750;SDS011;14345;48.272;25.926;2022-10-04T18:40:20;3.55;;;1.77;;
26750;SDS011;14345;48.272;25.926;2022-10-04T18:42:56;5.00;;;1.80;;
26750;SDS011;14345;48.272;25.926;2022-10-04T18:45:32;2.53;;;1.70;;
26750;SDS011;14345;48.272;25.926;2022-10-04T18:47:59;3.05;;;1.75;;
26750;SDS011;14345;48.272;25.926;2022-10-04T18:50:34;2.58;;;1.60;;
26750;SDS011;14345;48.272;25.926;2022-10-04T18:55:32;2.35;;;1.83;;
26750;SDS011;14345;48.272;25.926;2022-10-04T18:58:08;4.45;;;1.88;;
26750;SDS011;14345;48.272;25.926;2022-10-04T19:01:13;3.20;;;2.15;;
26750;SDS011;14345;48.272;25.926;2022-10-04T19:04:01;3.30;;;1.80;;
26750;SDS011;14345;48.272;25.926;2022-10-04T19:06:29;3.95;;;2.08;;
26750;SDS011;14345;48.272;25.926;2022-10-04T19:16:33;3.45;;;2.30;;
26750;SDS011;14345;48.272;25.926;2022-10-04T19:19:04;3.95;;;2.03;;
26750;SDS011;14345;48.272;25.926;2022-10-04T19:26:56;5.18;;;2.50;;
26750;SDS011;14345;48.272;25.926;2022-10-04T19:29:42;3.80;;;2.20;;
26750;SDS011;14345;48.272;25.926;2022-10-04T19:35:13;3.20;;;2.20;;
26750;SDS011;14345;48.272;25.926;2022-10-04T19:48:03;4.32;;;2.45;;
26750;SDS011;14345;48.272;25.926;2022-10-04T19:53:06;2.97;;;1.88;;
26750;SDS011;14345;48.272;25.926;2022-10-04T19:58:20;2.95;;;1.75;;
26750;SDS011;14345;48.272;25.926;2022-10-04T20:00:48;3.70;;;1.98;;
26750;SDS011;14345;48.272;25.926;2022-10-04T20:03:14;3.65;;;2.00;;
26750;SDS011;14345;48.272;25.926;2022-10-04T20:05:47;2.85;;;1.80;;
26750;SDS011;14345;48.272;25.926;2022-10-04T20:08:14;2.90;;;2.10;;
26750;SDS011;14345;48.272;25.926;2022-10-04T20:10:41;4.78;;;1.98;;
26750;SDS011;14345;48.272;25.926;2022-10-04T20:13:15;2.78;;;1.77;;
26750;SDS011;14345;48.272;25.926;2022-10-04T20:15:46;2.83;;;2.00;;
26750;SDS011;14345;48.272;25.926;2022-10-04T20:37:03;2.50;;;2.17;;
26750;SDS011;14345;48.272;25.926;2022-10-04T20:49:58;3.08;;;2.40;;
26750;SDS011;14345;48.272;25.926;2022-10-04T20:52:29;5.18;;;2.40;;
26750;SDS011;14345;48.272;25.926;2022-10-04T20:54:56;3.75;;;2.50;;
26750;SDS011;14345;48.272;25.926;2022-10-04T20:57:24;4.13;;;2.28;;
26750;SDS011;14345;48.272;25.926;2022-10-04T20:59:50;4.95;;;2.13;;
26750;SDS011;14345;48.272;25.926;2022-10-04T21:02:21;2.95;;;2.25;;
26750;SDS011;14345;48.272;25.926;2022-10-04T21:04:48;6.22;;;2.60;;
26750;SDS011;14345;48.272;25.926;2022-10-04T21:07:20;4.65;;;2.45;;
26750;SDS011;14345;48.272;25.926;2022-10-04T21:09:47;2.58;;;2.10;;
26750;SDS011;14345;48.272;25.926;2022-10-04T21:19:52;3.10;;;2.60;;
26750;SDS011;14345;48.272;25.926;2022-10-04T21:25:25;4.05;;;2.53;;
26750;SDS011;14345;48.272;25.926;2022-10-04T21:27:43;3.92;;;2.60;;
26750;SDS011;14345;48.272;25.926;2022-10-04T21:30:13;5.82;;;2.85;;
26750;SDS011;14345;48.272;25.926;2022-10-04T21:32:39;4.03;;;2.50;;
26750;SDS011;14345;48.272;25.926;2022-10-04T21:35:05;6.13;;;2.63;;
26750;SDS011;14345;48.272;25.926;2022-10-04T21:37:32;4.00;;;2.78;;
26750;SDS011;14345;48.272;25.926;2022-10-04T21:39:58;4.32;;;2.70;;
26750;SDS011;14345;48.272;25.926;2022-10-04T21:42:25;4.25;;;2.72;;
26750;SDS011;14345;48.272;25.926;2022-10-04T21:44:51;3.17;;;2.42;;
26750;SDS011;14345;48.272;25.926;2022-10-04T21:47:17;4.28;;;2.63;;
26750;SDS011;14345;48.272;25.926;2022-10-04T21:49:46;3.25;;;2.70;;
26750;SDS011;14345;48.272;25.926;2022-10-04T21:52:12;3.45;;;2.40;;
26750;SDS011;14345;48.272;25.926;2022-10-04T21:54:38;3.17;;;2.53;;
26750;SDS011;14345;48.272;25.926;2022-10-04T21:57:04;4.68;;;2.45;;
26750;SDS011;14345;48.272;25.926;2022-10-04T21:59:30;5.15;;;2.85;;
26750;SDS011;14345;48.272;25.926;2022-10-04T22:01:56;6.30;;;2.60;;
26750;SDS011;14345;48.272;25.926;2022-10-04T22:04:22;3.78;;;2.70;;
26750;SDS011;14345;48.272;25.926;2022-10-04T22:06:48;5.55;;;2.80;;
26750;SDS011;14345;48.272;25.926;2022-10-04T22:09:14;4.22;;;2.75;;
26750;SDS011;14345;48.272;25.926;2022-10-04T22:11:40;5.20;;;3.20;;
26750;SDS011;14345;48.272;25.926;2022-10-04T22:14:06;3.50;;;2.58;;
26750;SDS011;14345;48.272;25.926;2022-10-04T22:16:32;4.50;;;2.63;;
26750;SDS011;14345;48.272;25.926;2022-10-04T22:18:58;3.58;;;2.63;;
26750;SDS011;14345;48.272;25.926;2022-10-04T22:21:24;5.00;;;2.75;;
26750;SDS011;14345;48.272;25.926;2022-10-04T22:23:50;3.60;;;2.42;;
26750;SDS011;14345;48.272;25.926;2022-10-04T22:26:18;4.70;;;2.90;;
26750;SDS011;14345;48.272;25.926;2022-10-04T22:28:45;5.60;;;2.85;;
26750;SDS011;14345;48.272;25.926;2022-10-04T22:31:12;5.75;;;2.83;;
26750;SDS011;14345;48.272;25.926;2022-10-04T22:33:39;5.78;;;2.90;;
26750;SDS011;14345;48.272;25.926;2022-10-04T22:38:35;10.57;;;2.60;;
26750;SDS011;14345;48.272;25.926;2022-10-04T22:41:04;3.03;;;2.58;;
26750;SDS011;14345;48.272;25.926;2022-10-04T22:43:30;5.20;;;2.67;;
26750;SDS011;14345;48.272;25.926;2022-10-04T22:45:56;3.60;;;2.60;;
26750;SDS011;14345;48.272;25.926;2022-10-04T22:48:22;4.35;;;2.45;;
26750;SDS011;14345;48.272;25.926;2022-10-04T22:50:50;4.07;;;2.33;;
26750;SDS011;14345;48.272;25.926;2022-10-04T22:53:17;3.55;;;2.60;;
26750;SDS011;14345;48.272;25.926;2022-10-04T22:55:44;3.88;;;2.70;;
26750;SDS011;14345;48.272;25.926;2022-10-04T22:58:12;4.60;;;2.38;;
26750;SDS011;14345;48.272;25.926;2022-10-04T23:00:39;4.72;;;3.00;;
26750;SDS011;14345;48.272;25.926;2022-10-04T23:06:03;4.03;;;2.90;;
26750;SDS011;14345;48.272;25.926;2022-10-04T23:08:36;4.00;;;2.50;;
26750;SDS011;14345;48.272;25.926;2022-10-04T23:11:03;5.03;;;2.40;;
26750;SDS011;14345;48.272;25.926;2022-10-04T23:13:29;4.43;;;2.75;;
26750;SDS011;14345;48.272;25.926;2022-10-04T23:15:56;3.53;;;2.30;;
26750;SDS011;14345;48.272;25.926;2022-10-04T23:18:22;3.25;;;2.20;;
26750;SDS011;14345;48.272;25.926;2022-10-04T23:20:50;3.50;;;2.55;;
26750;SDS011;14345;48.272;25.926;2022-10-04T23:23:18;4.60;;;2.42;;
26750;SDS011;14345;48.272;25.926;2022-10-04T23:25:47;3.53;;;2.20;;
26750;SDS011;14345;48.272;25.926;2022-10-04T23:28:14;3.72;;;2.30;;
26750;SDS011;14345;48.272;25.926;2022-10-04T23:30:42;2.80;;;2.20;;
26750;SDS011;14345;48.272;25.926;2022-10-04T23:33:14;3.22;;;2.17;;
26750;SDS011;14345;48.272;25.926;2022-10-04T23:35:41;5.47;;;2.38;;
26750;SDS011;14345;48.272;25.926;2022-10-04T23:38:09;3.00;;;2.30;;
26750;SDS011;14345;48.272;25.926;2022-10-04T23:40:37;3.10;;;2.20;;
26750;SDS011;14345;48.272;25.926;2022-10-04T23:43:03;2.95;;;2.50;;
26750;SDS011;14345;48.272;25.926;2022-10-04T23:45:30;4.40;;;2.50;;
26750;SDS011;14345;48.272;25.926;2022-10-04T23:47:58;5.60;;;2.83;;
26750;SDS011;14345;48.272;25.926;2022-10-04T23:50:28;5.93;;;2.38;;
26750;SDS011;14345;48.272;25.926;2022-10-04T23:52:55;4.07;;;2.20;;
26750;SDS011;14345;48.272;25.926;2022-10-04T23:55:28;6.13;;;2.40;;
26750;SDS011;14345;48.272;25.926;2022-10-04T23:57:55;4.55;;;2.10;;
